South China, Maine
Current Conditions -  °F | °C
As of 2:15 PM on Tuesday 21 Oct 2014 (Local Time) from KWVL Reporting Station
Overcast Overcast  
Wind Chill: 52°   Ceiling: 2700
Heat Index: 52°   Visibility: 10mi
Dew Point: 43°   Wind: 7mph
Humidity: 71%   Direction: 40°NE
Pressure: 30.02"   Gusts: NA
Location:  44.4°N, 69.57°W
Report Text: KWVL 211815Z 04006KT 10SM SCT020 BKN027 OVC033 11/06 A3002 RMK AO1
Loading
Personal Weather Stations






























Interactive Weather Map
Tropical Storm Tracking
New forecast layout! Learn more

10-Day Weather Forecast

Advertisements
Track Severe Weather on mobile